Flight Track Log - Related Links

Times and Time Zones

All times are in EDT time to prevent confusion due to time zone crossing. See the N125GH flight status page for this flight to view local times or setup timezone preferences in your user account.

Time Position Orientation Groundspeed Altitude Reporting Facility
EDT Latitude Longitude Course Direction KTS MPH feet Rate Location/Type
Thu 02:29:19 PM 29.6400 -95.2694 31° Northeast 149 171 800  Level Houston Center
Thu 02:30:01 PM 29.6694 -95.2489 31° Northeast 233 268 2,500 2,447 Climbing Houston Center
Thu 02:31:02 PM 29.7403 -95.2428 North 276 318 5,000 2,055 Climbing Houston Center
Thu 02:31:14 PM 29.7517 -95.2453 349° North 261 300 5,000 581 Level Houston Center
Thu 02:32:04 PM 29.8150 -95.2794 335° Northwest 274 315 5,600 774 Climbing Houston Center
Thu 02:32:16 PM 29.8214 -95.2831 334° Northwest 275 316 5,800 2,656 Climbing Houston Center
Thu 02:33:05 PM 29.8578 -95.3536 301° West 278 320 8,300 2,516 Climbing Houston Center
Thu 02:33:18 PM 29.8628 -95.3592 316° Northwest 282 325 8,400 2,557 Climbing Houston Center
Thu 02:34:06 PM 29.9086 -95.4294 307° West 304 350 10,900 2,476 Climbing Houston Center
Thu 02:34:21 PM 29.9114 -95.4339 306° West 291 335 11,000 2,656 Climbing Houston Center
Thu 02:35:07 PM 29.9631 -95.5194 305° West 355 409 13,600 3,097 Climbing Houston Center
Thu 02:35:23 PM 29.9772 -95.5414 307° West 341 392 14,200 1,846 Climbing Houston Center
Thu 02:36:25 PM 30.0372 -95.6442 304° West 382 440 16,000 864 Climbing Houston Center
Thu 02:37:28 PM 30.1050 -95.7450 308° West 397 457 16,000 242 Level Houston Center
Thu 02:38:29 PM 30.1419 -95.8639 290° West 396 456 16,500 1,220 Climbing Houston Center
Thu 02:39:31 PM 30.1672 -95.9881 283° West 399 459 18,500 1,210 Climbing Houston Center
Thu 02:40:33 PM 30.1806 -96.1253 276° West 394 453 19,000 242 Climbing Houston Center
Thu 02:41:35 PM 30.1961 -96.2550 278° West 403 464 19,000 480 Level Houston Center
Thu 02:42:38 PM 30.2144 -96.4053 278° West 402 463 20,000 768 Climbing Houston Center
Thu 02:43:40 PM 30.2292 -96.5386 277° West 411 473 20,600 1,016 Climbing Houston Center
Thu 02:44:42 PM 30.2453 -96.6728 278° West 414 476 22,100 1,597 Climbing Houston Center
Thu 02:45:44 PM 30.2625 -96.8047 279° West 412 474 23,900 1,742 Climbing Houston Center
Thu 02:46:46 PM 30.2797 -96.9436 278° West 422 486 25,700 1,742 Climbing Houston Center
Thu 02:47:48 PM 30.2967 -97.0858 278° West 434 499 27,500 1,790 Climbing Houston Center
Thu 02:48:50 PM 30.3156 -97.2339 278° West 448 516 29,400 1,776 Climbing Houston Center
Thu 02:49:53 PM 30.3653 -97.3764 292° West 463 533 31,200 1,872 Climbing Houston Center
Thu 02:50:55 PM 30.4206 -97.5425 291° West 466 536 33,300 1,984 Climbing Houston Center
Thu 02:51:57 PM 30.4619 -97.6864 288° West 465 535 35,300 1,984 Climbing Houston Center
Thu 02:52:59 PM 30.4969 -97.8256 286° West 446 513 37,400 2,032 Climbing Houston Center
Thu 02:54:01 PM 30.5267 -97.9617 284° West 432 497 39,500 1,742 Climbing Houston Center
Thu 02:55:03 PM 30.5578 -98.0958 285° West 427 491 41,000 1,258 Climbing Houston Center
Thu 02:56:05 PM 30.5864 -98.2297 284° West 425 489 42,100 912 Climbing Houston Center
Thu 02:57:08 PM 30.6164 -98.3656 284° West 430 495 42,900 432 Climbing Houston Center
Thu 02:58:10 PM 30.6464 -98.5025 284° West 434 499 43,000 387 Climbing Houston Center
Thu 02:59:12 PM 30.6833 -98.6650 285° West 441 507 43,700 629 Climbing Houston Center
Thu 03:00:14 PM 30.7133 -98.8053 284° West 442 509 44,300 581 Climbing Houston Center
Thu 03:01:16 PM 30.7428 -98.9436 284° West 438 504 44,900 581 Climbing Houston Center
Thu 03:02:18 PM 30.7725 -99.0794 284° West 432 497 45,500 528 Climbing Houston Center
Thu 03:03:21 PM 30.8017 -99.2139 284° West 429 494 46,000 528 Climbing Houston Center
Thu 03:04:23 PM 30.8303 -99.3486 284° West 431 496 46,600 484 Climbing Houston Center
Thu 03:05:25 PM 30.8600 -99.4825 285° West 430 495 47,000 194 Climbing Houston Center
Thu 03:06:27 PM 30.8972 -99.6444 285° West 438 504 47,000  Level Houston Center
Thu 03:07:29 PM 30.9597 -99.7633 302° West 448 516 47,000  Level Houston Center
Thu 03:08:31 PM 31.0322 -99.8764 307° West 446 513 47,000  Level Houston Center
Thu 03:09:34 PM 31.1019 -99.9911 305° West 440 506 47,000  Level Houston Center
Thu 03:10:36 PM 31.1694 -100.0978 307° West 429 494 47,000  Level Houston Center
Thu 03:11:38 PM 31.2475 -100.2286 305° West 415 478 47,000  Level Houston Center
Thu 03:12:40 PM 31.3100 -100.3319 305° West 404 465 47,000  Level Houston Center
Thu 03:13:42 PM 31.3644 -100.4481 299° West 413 475 47,000  Level Houston Center
Thu 03:14:44 PM 31.4389 -100.5458 312° West 419 482 47,000  Level Houston Center
Thu 03:15:46 PM 31.5172 -100.6453 313° West 416 479 47,000  Level Houston Center
Thu 03:16:49 PM 31.6122 -100.7631 313° West 420 483 47,000  Level Houston Center
Thu 03:18:00 PM 31.7103 -100.8783 315° West 414 476 47,000  Level Fort Worth Center
Thu 03:19:00 PM 31.7911 -100.9792 313° West 414 476 47,000  Level Fort Worth Center
Thu 03:20:00 PM 31.8697 -101.0778 313° West 414 476 47,000  Level Fort Worth Center
Thu 03:21:00 PM 31.9522 -101.1814 313° West 414 476 47,000  Level Fort Worth Center
Thu 03:22:00 PM 32.0325 -101.2828 313° West 419 482 47,000  Level Fort Worth Center
Thu 03:23:00 PM 32.1150 -101.3867 313° West 424 488 47,000  Level Fort Worth Center
Thu 03:24:00 PM 32.1828 -101.4831 310° West 429 494 47,000  Level Fort Worth Center
Thu 03:25:00 PM 32.2672 -101.5850 314° West 424 488 47,000  Level Fort Worth Center
Thu 03:26:00 PM 32.3492 -101.6897 313° West 424 488 47,000  Level Fort Worth Center
Thu 03:27:00 PM 32.4314 -101.7919 314° West 424 488 47,000  Level Fort Worth Center
Thu 03:28:00 PM 32.5133 -101.8944 313° West 424 488 47,000  Level Fort Worth Center
Thu 03:29:00 PM 32.6031 -102.0100 313° West 424 488 47,000  Level Fort Worth Center
Thu 03:30:00 PM 32.6847 -102.1103 314° West 424 488 47,000  Level Fort Worth Center
Thu 03:31:00 PM 32.7664 -102.2158 313° West 430 495 47,000  Level Fort Worth Center
Thu 03:32:00 PM 32.8478 -102.3217 312° West 430 495 47,000  Level Fort Worth Center
Thu 03:33:00 PM 32.9253 -102.4247 312° West 430 495 47,000  Level Fort Worth Center
Thu 03:34:00 PM 33.0003 -102.5306 310° West 417 480 47,000  Level Fort Worth Center
Thu 03:35:00 PM 33.0836 -102.6319 314° West 424 488 47,000  Level Fort Worth Center
Thu 03:36:00 PM 33.1608 -102.7358 312° West 424 488 47,000  Level Fort Worth Center
Thu 03:37:00 PM 33.2375 -102.8422 311° West 424 488 47,000  Level Fort Worth Center
Thu 03:37:56 PM 33.2967 -102.9128 315° West 421 484 47,000  Level Albuquerque Center
Thu 03:38:57 PM 33.3747 -103.0181 312° West 422 486 47,000  Level Albuquerque Center
Thu 03:39:57 PM 33.4683 -103.1411 312° West 420 483 47,000  Level Albuquerque Center
Thu 03:41:01 PM 33.5461 -103.2472 311° West 423 487 47,000  Level Albuquerque Center
Thu 03:42:02 PM 33.6244 -103.3536 312° West 426 490 47,000  Level Albuquerque Center
Thu 03:43:05 PM 33.7014 -103.4581 312° West 423 487 47,000  Level Albuquerque Center
Thu 03:44:06 PM 33.7833 -103.5614 314° West 416 479 47,000  Level Albuquerque Center
Thu 03:45:10 PM 33.8697 -103.6781 312° West 420 483 47,000  Level Albuquerque Center
Thu 03:46:10 PM 33.9539 -103.7914 312° West 423 487 47,000  Level Albuquerque Center
Thu 03:47:14 PM 34.0314 -103.8989 311° West 419 482 47,000 -435 Level Albuquerque Center
Thu 03:48:14 PM 34.1094 -104.0014 313° West 414 476 46,100 -1,065 Descending Albuquerque Center
Thu 03:49:18 PM 34.1864 -104.1061 312° West 411 473 44,800 -1,286 Descending Albuquerque Center
Thu 03:50:20 PM 34.2653 -104.2131 312° West 419 482 43,400 -1,306 Descending Albuquerque Center
Thu 03:51:22 PM 34.3481 -104.3264 312° West 435 501 42,100 -1,279 Descending Albuquerque Center
Thu 03:52:22 PM 34.4294 -104.4378 312° West 437 503 40,800 -1,317 Descending Albuquerque Center
Thu 03:53:25 PM 34.5139 -104.5519 312° West 445 512 39,400 -1,258 Descending Albuquerque Center
Thu 03:54:26 PM 34.6114 -104.6864 311° West 448 516 38,200 -677 Descending Albuquerque Center
Thu 03:55:29 PM 34.6947 -104.8019 311° West 449 517 38,000 -387 Descending Albuquerque Center
Thu 03:56:30 PM 34.7814 -104.9186 312° West 455 524 37,400 -780 Descending Albuquerque Center
Thu 03:57:32 PM 34.8650 -105.0344 311° West 452 520 36,400 -720 Descending Albuquerque Center
Thu 03:58:35 PM 34.9500 -105.1517 312° West 454 522 35,900 -1,286 Descending Albuquerque Center
Thu 03:59:38 PM 35.0236 -105.2703 307° West 439 505 33,700 -2,274 Descending Albuquerque Center
Thu 04:00:39 PM 35.0539 -105.4122 285° West 429 494 31,200 -2,705 Descending Albuquerque Center
Thu 04:01:40 PM 35.0864 -105.5764 284° West 435 501 28,200 -2,705 Descending Albuquerque Center
Thu 04:02:41 PM 35.1339 -105.7078 294° West 423 487 25,700 -2,476 Descending Albuquerque Center
Thu 04:03:46 PM 35.2172 -105.7897 321° Northwest 391 450 23,000 -2,736 Descending Albuquerque Center
Thu 04:04:46 PM 35.3064 -105.8564 329° Northwest 380 437 20,000 -2,976 Descending Albuquerque Center
Thu 04:05:49 PM 35.3992 -105.9242 329° Northwest 365 420 16,900 -2,855 Descending Albuquerque Center
Thu 04:06:50 PM 35.4764 -105.9733 333° Northwest 349 402 14,100 -2,419 Descending Albuquerque Center
Thu 04:07:53 PM 35.5564 -106.0289 331° Northwest 333 383 11,900 -1,392 Descending Albuquerque Center
Thu 04:08:55 PM 35.6250 -106.1003 320° Northwest 323 372 11,200 -1,440 Descending Albuquerque Center
Thu 04:09:58 PM 35.6861 -106.1667 319° Northwest 282 325 8,900 -1,258 Descending Albuquerque Center
Thu 04:10:59 PM 35.6969 -106.1097 77° East 220 253 8,600 -295 Descending Albuquerque Center

Login

Don't have an account? Register now (free) for customized features, flight alerts, and more!